sensor_id;sensor_type;location;lat;lon;timestamp;pressure;altitude;pressure_sealevel;temperature;humidity
20696;BME280;10507;52.754;13.040;2022-07-23T00:00:54;101575.28;;;16.03;100.00
20696;BME280;10507;52.754;13.040;2022-07-23T00:03:21;101584.66;;;15.96;100.00
20696;BME280;10507;52.754;13.040;2022-07-23T00:05:49;101608.28;;;15.91;100.00
20696;BME280;10507;52.754;13.040;2022-07-23T00:08:18;101614.00;;;15.85;100.00
20696;BME280;10507;52.754;13.040;2022-07-23T00:10:46;101591.28;;;15.74;100.00
20696;BME280;10507;52.754;13.040;2022-07-23T00:13:14;101540.09;;;15.58;100.00
20696;BME280;10507;52.754;13.040;2022-07-23T00:15:41;101621.97;;;15.54;100.00
20696;BME280;10507;52.754;13.040;2022-07-23T00:18:10;101646.78;;;15.44;100.00
20696;BME280;10507;52.754;13.040;2022-07-23T00:20:37;101657.25;;;15.32;100.00
20696;BME280;10507;52.754;13.040;2022-07-23T00:23:05;101686.13;;;15.29;100.00
20696;BME280;10507;52.754;13.040;2022-07-23T00:25:35;101727.28;;;15.31;100.00
20696;BME280;10507;52.754;13.040;2022-07-23T00:28:04;101773.59;;;15.37;100.00
20696;BME280;10507;52.754;13.040;2022-07-23T00:30:32;101795.84;;;15.41;100.00
20696;BME280;10507;52.754;13.040;2022-07-23T00:33:02;101790.63;;;15.38;100.00
20696;BME280;10507;52.754;13.040;2022-07-23T00:35:32;101784.34;;;15.37;100.00
20696;BME280;10507;52.754;13.040;2022-07-23T00:38:01;101769.31;;;15.33;100.00
20696;BME280;10507;52.754;13.040;2022-07-23T00:40:29;101811.59;;;15.31;100.00
20696;BME280;10507;52.754;13.040;2022-07-23T00:42:59;101829.63;;;15.29;100.00
20696;BME280;10507;52.754;13.040;2022-07-23T00:45:27;101836.97;;;15.26;100.00
20696;BME280;10507;52.754;13.040;2022-07-23T00:47:55;101854.94;;;15.25;100.00
20696;BME280;10507;52.754;13.040;2022-07-23T00:50:23;101876.78;;;15.19;100.00
20696;BME280;10507;52.754;13.040;2022-07-23T00:52:51;101889.44;;;15.17;100.00
20696;BME280;10507;52.754;13.040;2022-07-23T00:55:19;101899.38;;;15.15;100.00
20696;BME280;10507;52.754;13.040;2022-07-23T00:57:47;101913.00;;;15.12;100.00
20696;BME280;10507;52.754;13.040;2022-07-23T01:00:16;101919.47;;;15.08;100.00
20696;BME280;10507;52.754;13.040;2022-07-23T01:02:44;101937.34;;;15.09;100.00
20696;BME280;10507;52.754;13.040;2022-07-23T01:05:14;101917.06;;;15.02;100.00
20696;BME280;10507;52.754;13.040;2022-07-23T01:07:42;101904.88;;;14.94;100.00
20696;BME280;10507;52.754;13.040;2022-07-23T01:10:10;101925.75;;;14.89;100.00
20696;BME280;10507;52.754;13.040;2022-07-23T01:12:52;101894.84;;;14.79;100.00
20696;BME280;10507;52.754;13.040;2022-07-23T01:15:21;101877.44;;;14.69;100.00
20696;BME280;10507;52.754;13.040;2022-07-23T01:17:49;101934.00;;;14.66;100.00
20696;BME280;10507;52.754;13.040;2022-07-23T01:20:17;101959.28;;;14.62;100.00
20696;BME280;10507;52.754;13.040;2022-07-23T01:22:46;101956.13;;;14.52;100.00
20696;BME280;10507;52.754;13.040;2022-07-23T01:25:14;101997.38;;;14.51;100.00
20696;BME280;10507;52.754;13.040;2022-07-23T01:27:42;102026.69;;;14.57;100.00
20696;BME280;10507;52.754;13.040;2022-07-23T01:30:10;102020.34;;;14.60;100.00
20696;BME280;10507;52.754;13.040;2022-07-23T01:32:39;102000.50;;;14.62;100.00
20696;BME280;10507;52.754;13.040;2022-07-23T01:35:08;101995.84;;;14.66;100.00
20696;BME280;10507;52.754;13.040;2022-07-23T01:37:35;101975.94;;;14.70;100.00
20696;BME280;10507;52.754;13.040;2022-07-23T01:40:06;101935.69;;;14.68;100.00
20696;BME280;10507;52.754;13.040;2022-07-23T01:42:34;101916.16;;;14.65;100.00
20696;BME280;10507;52.754;13.040;2022-07-23T01:45:04;101903.00;;;14.59;100.00
20696;BME280;10507;52.754;13.040;2022-07-23T01:47:32;101914.69;;;14.58;100.00
20696;BME280;10507;52.754;13.040;2022-07-23T01:50:00;101916.50;;;14.57;100.00
20696;BME280;10507;52.754;13.040;2022-07-23T01:52:35;101940.34;;;14.65;100.00
20696;BME280;10507;52.754;13.040;2022-07-23T01:55:05;101923.78;;;14.74;100.00
20696;BME280;10507;52.754;13.040;2022-07-23T01:57:33;101879.53;;;14.81;100.00
20696;BME280;10507;52.754;13.040;2022-07-23T02:00:01;101855.66;;;14.92;100.00
20696;BME280;10507;52.754;13.040;2022-07-23T02:02:28;101793.50;;;14.99;100.00
20696;BME280;10507;52.754;13.040;2022-07-23T02:04:56;101738.69;;;15.01;100.00
20696;BME280;10507;52.754;13.040;2022-07-23T02:07:24;101691.16;;;15.02;100.00
20696;BME280;10507;52.754;13.040;2022-07-23T02:09:51;101677.63;;;15.03;100.00
20696;BME280;10507;52.754;13.040;2022-07-23T02:12:20;101654.53;;;14.99;100.00
20696;BME280;10507;52.754;13.040;2022-07-23T02:14:48;101612.53;;;14.96;100.00
20696;BME280;10507;52.754;13.040;2022-07-23T02:17:15;101607.34;;;14.93;100.00
20696;BME280;10507;52.754;13.040;2022-07-23T02:19:43;101598.38;;;14.93;100.00
20696;BME280;10507;52.754;13.040;2022-07-23T02:22:11;101642.97;;;14.97;100.00
20696;BME280;10507;52.754;13.040;2022-07-23T02:24:38;101648.28;;;14.99;100.00
20696;BME280;10507;52.754;13.040;2022-07-23T02:27:06;101638.38;;;14.99;100.00
20696;BME280;10507;52.754;13.040;2022-07-23T02:29:35;101632.16;;;14.99;100.00
20696;BME280;10507;52.754;13.040;2022-07-23T02:32:03;101585.03;;;14.91;100.00
20696;BME280;10507;52.754;13.040;2022-07-23T02:34:33;101597.75;;;14.88;100.00
20696;BME280;10507;52.754;13.040;2022-07-23T02:37:00;101622.03;;;14.86;100.00
20696;BME280;10507;52.754;13.040;2022-07-23T02:39:28;101589.22;;;14.80;100.00
20696;BME280;10507;52.754;13.040;2022-07-23T02:41:56;101590.78;;;14.84;100.00
20696;BME280;10507;52.754;13.040;2022-07-23T02:44:24;101598.84;;;14.84;100.00
20696;BME280;10507;52.754;13.040;2022-07-23T02:46:53;101620.78;;;14.76;100.00
20696;BME280;10507;52.754;13.040;2022-07-23T02:49:20;101597.88;;;14.69;100.00
20696;BME280;10507;52.754;13.040;2022-07-23T02:51:48;101617.78;;;14.65;100.00
20696;BME280;10507;52.754;13.040;2022-07-23T02:54:16;101675.09;;;14.65;100.00
20696;BME280;10507;52.754;13.040;2022-07-23T02:56:44;101673.44;;;14.63;100.00
20696;BME280;10507;52.754;13.040;2022-07-23T02:59:11;101655.66;;;14.60;100.00
20696;BME280;10507;52.754;13.040;2022-07-23T03:01:39;101653.81;;;14.61;100.00
20696;BME280;10507;52.754;13.040;2022-07-23T03:04:08;101657.47;;;14.60;100.00
20696;BME280;10507;52.754;13.040;2022-07-23T03:06:36;101681.56;;;14.61;100.00
20696;BME280;10507;52.754;13.040;2022-07-23T03:09:04;101670.91;;;14.60;100.00
20696;BME280;10507;52.754;13.040;2022-07-23T03:11:32;101680.69;;;14.61;100.00
20696;BME280;10507;52.754;13.040;2022-07-23T03:13:59;101674.28;;;14.63;100.00
20696;BME280;10507;52.754;13.040;2022-07-23T03:16:27;101651.75;;;14.66;100.00
20696;BME280;10507;52.754;13.040;2022-07-23T03:18:55;101640.16;;;14.65;100.00
20696;BME280;10507;52.754;13.040;2022-07-23T03:21:24;101685.59;;;14.70;100.00
20696;BME280;10507;52.754;13.040;2022-07-23T03:23:52;101695.25;;;14.74;100.00
20696;BME280;10507;52.754;13.040;2022-07-23T03:26:19;101673.53;;;14.79;100.00
20696;BME280;10507;52.754;13.040;2022-07-23T03:28:51;101686.66;;;14.85;100.00
20696;BME280;10507;52.754;13.040;2022-07-23T03:31:19;101678.09;;;14.94;100.00
20696;BME280;10507;52.754;13.040;2022-07-23T03:33:47;101645.34;;;15.03;100.00
20696;BME280;10507;52.754;13.040;2022-07-23T03:36:14;101625.78;;;15.17;100.00
20696;BME280;10507;52.754;13.040;2022-07-23T03:38:43;101567.13;;;15.24;100.00
20696;BME280;10507;52.754;13.040;2022-07-23T03:41:11;101537.13;;;15.31;100.00
20696;BME280;10507;52.754;13.040;2022-07-23T03:43:39;101498.94;;;15.41;100.00
20696;BME280;10507;52.754;13.040;2022-07-23T03:46:07;101463.84;;;15.42;100.00
20696;BME280;10507;52.754;13.040;2022-07-23T03:48:34;101451.16;;;15.44;100.00
20696;BME280;10507;52.754;13.040;2022-07-23T03:51:02;101431.47;;;15.44;100.00
20696;BME280;10507;52.754;13.040;2022-07-23T03:53:30;101439.56;;;15.44;100.00
20696;BME280;10507;52.754;13.040;2022-07-23T03:55:59;101471.25;;;15.38;100.00
20696;BME280;10507;52.754;13.040;2022-07-23T03:58:27;101464.81;;;15.25;100.00
20696;BME280;10507;52.754;13.040;2022-07-23T04:00:54;101507.00;;;15.25;100.00
20696;BME280;10507;52.754;13.040;2022-07-23T04:03:22;101582.69;;;15.34;100.00
20696;BME280;10507;52.754;13.040;2022-07-23T04:05:50;101534.88;;;15.39;100.00
20696;BME280;10507;52.754;13.040;2022-07-23T04:08:17;101499.47;;;15.47;100.00
20696;BME280;10507;52.754;13.040;2022-07-23T04:10:45;101456.66;;;15.58;100.00
20696;BME280;10507;52.754;13.040;2022-07-23T04:13:14;101441.28;;;15.61;100.00
20696;BME280;10507;52.754;13.040;2022-07-23T04:15:41;101494.22;;;15.60;100.00
20696;BME280;10507;52.754;13.040;2022-07-23T04:18:09;101624.66;;;15.54;100.00
20696;BME280;10507;52.754;13.040;2022-07-23T04:20:38;101704.94;;;15.46;100.00
20696;BME280;10507;52.754;13.040;2022-07-23T04:23:06;101708.69;;;15.44;100.00
20696;BME280;10507;52.754;13.040;2022-07-23T04:25:34;101744.16;;;15.34;100.00
20696;BME280;10507;52.754;13.040;2022-07-23T04:28:02;101846.03;;;15.25;100.00
20696;BME280;10507;52.754;13.040;2022-07-23T04:30:31;101942.16;;;15.21;100.00
20696;BME280;10507;52.754;13.040;2022-07-23T04:32:59;101963.97;;;15.15;100.00
20696;BME280;10507;52.754;13.040;2022-07-23T04:35:27;101998.81;;;15.18;100.00
20696;BME280;10507;52.754;13.040;2022-07-23T04:37:54;102069.69;;;15.17;100.00
20696;BME280;10507;52.754;13.040;2022-07-23T04:40:22;102143.13;;;15.19;100.00
20696;BME280;10507;52.754;13.040;2022-07-23T04:42:50;102210.84;;;15.29;100.00
20696;BME280;10507;52.754;13.040;2022-07-23T04:45:17;102195.59;;;15.29;100.00
20696;BME280;10507;52.754;13.040;2022-07-23T04:47:46;102226.78;;;15.33;100.00
20696;BME280;10507;52.754;13.040;2022-07-23T04:50:14;102247.13;;;15.41;100.00
20696;BME280;10507;52.754;13.040;2022-07-23T04:52:45;102216.72;;;15.38;100.00
20696;BME280;10507;52.754;13.040;2022-07-23T04:55:12;102273.09;;;15.42;100.00
20696;BME280;10507;52.754;13.040;2022-07-23T04:57:40;102216.50;;;15.43;100.00
20696;BME280;10507;52.754;13.040;2022-07-23T05:00:09;102185.72;;;15.49;100.00
20696;BME280;10507;52.754;13.040;2022-07-23T05:02:37;102152.41;;;15.51;100.00
20696;BME280;10507;52.754;13.040;2022-07-23T05:05:07;102099.47;;;15.52;100.00
20696;BME280;10507;52.754;13.040;2022-07-23T05:07:34;102072.41;;;15.36;100.00
20696;BME280;10507;52.754;13.040;2022-07-23T05:10:02;102100.31;;;15.33;100.00
20696;BME280;10507;52.754;13.040;2022-07-23T05:12:30;102105.03;;;15.28;100.00
20696;BME280;10507;52.754;13.040;2022-07-23T05:14:59;102143.53;;;15.30;100.00
20696;BME280;10507;52.754;13.040;2022-07-23T05:17:26;102205.94;;;15.38;100.00
20696;BME280;10507;52.754;13.040;2022-07-23T05:19:54;102157.78;;;15.32;100.00
20696;BME280;10507;52.754;13.040;2022-07-23T05:22:28;102186.09;;;15.41;100.00
20696;BME280;10507;52.754;13.040;2022-07-23T05:24:56;102129.41;;;15.44;100.00
20696;BME280;10507;52.754;13.040;2022-07-23T05:27:24;102113.72;;;15.54;100.00
20696;BME280;10507;52.754;13.040;2022-07-23T05:29:51;101956.91;;;15.49;100.00
20696;BME280;10507;52.754;13.040;2022-07-23T05:32:19;101858.78;;;15.56;100.00
20696;BME280;10507;52.754;13.040;2022-07-23T05:34:47;101843.06;;;15.64;100.00
20696;BME280;10507;52.754;13.040;2022-07-23T05:37:14;101839.53;;;15.64;100.00
20696;BME280;10507;52.754;13.040;2022-07-23T05:39:43;101888.72;;;15.67;100.00
20696;BME280;10507;52.754;13.040;2022-07-23T05:42:11;101882.84;;;15.59;100.00
20696;BME280;10507;52.754;13.040;2022-07-23T05:44:39;101905.31;;;15.58;100.00
20696;BME280;10507;52.754;13.040;2022-07-23T05:47:06;101950.16;;;15.59;100.00
20696;BME280;10507;52.754;13.040;2022-07-23T05:49:36;101992.91;;;15.65;100.00
20696;BME280;10507;52.754;13.040;2022-07-23T05:52:04;102031.91;;;15.75;100.00
20696;BME280;10507;52.754;13.040;2022-07-23T05:54:34;101883.63;;;15.61;100.00
20696;BME280;10507;52.754;13.040;2022-07-23T05:57:03;101960.00;;;15.77;100.00
20696;BME280;10507;52.754;13.040;2022-07-23T05:59:31;101982.78;;;15.70;100.00
20696;BME280;10507;52.754;13.040;2022-07-23T06:01:59;101990.72;;;15.73;100.00
20696;BME280;10507;52.754;13.040;2022-07-23T06:04:27;102009.69;;;15.72;100.00
20696;BME280;10507;52.754;13.040;2022-07-23T06:06:54;102064.50;;;15.69;100.00
20696;BME280;10507;52.754;13.040;2022-07-23T06:09:22;102144.22;;;15.73;100.00
20696;BME280;10507;52.754;13.040;2022-07-23T06:11:50;102157.69;;;15.73;100.00
20696;BME280;10507;52.754;13.040;2022-07-23T06:14:19;102068.81;;;15.73;100.00
20696;BME280;10507;52.754;13.040;2022-07-23T06:16:46;102088.97;;;15.84;100.00
20696;BME280;10507;52.754;13.040;2022-07-23T06:19:14;102141.53;;;15.92;100.00
20696;BME280;10507;52.754;13.040;2022-07-23T06:21:42;102179.94;;;15.96;100.00
20696;BME280;10507;52.754;13.040;2022-07-23T06:24:13;102211.13;;;16.02;100.00
20696;BME280;10507;52.754;13.040;2022-07-23T06:26:41;102259.13;;;16.12;100.00
20696;BME280;10507;52.754;13.040;2022-07-23T06:29:08;102262.81;;;16.29;100.00
20696;BME280;10507;52.754;13.040;2022-07-23T06:31:38;102098.81;;;16.21;100.00
20696;BME280;10507;52.754;13.040;2022-07-23T06:34:05;101933.53;;;16.20;100.00
20696;BME280;10507;52.754;13.040;2022-07-23T06:36:33;101853.59;;;16.37;100.00
20696;BME280;10507;52.754;13.040;2022-07-23T06:39:01;101838.72;;;16.46;100.00
20696;BME280;10507;52.754;13.040;2022-07-23T06:41:31;101788.13;;;16.51;100.00
20696;BME280;10507;52.754;13.040;2022-07-23T06:43:58;101684.56;;;16.55;100.00
20696;BME280;10507;52.754;13.040;2022-07-23T06:46:26;101582.25;;;16.52;100.00
20696;BME280;10507;52.754;13.040;2022-07-23T06:48:55;101465.84;;;16.45;100.00
20696;BME280;10507;52.754;13.040;2022-07-23T06:51:23;101455.69;;;16.50;100.00
20696;BME280;10507;52.754;13.040;2022-07-23T06:53:51;101464.91;;;16.60;100.00
20696;BME280;10507;52.754;13.040;2022-07-23T06:56:18;101544.38;;;16.69;100.00
20696;BME280;10507;52.754;13.040;2022-07-23T06:58:46;101634.09;;;16.87;100.00
20696;BME280;10507;52.754;13.040;2022-07-23T07:01:14;101648.09;;;17.08;100.00
20696;BME280;10507;52.754;13.040;2022-07-23T07:03:42;101583.66;;;17.18;100.00
20696;BME280;10507;52.754;13.040;2022-07-23T07:06:11;101494.66;;;17.31;100.00
20696;BME280;10507;52.754;13.040;2022-07-23T07:08:38;101456.16;;;17.41;99.80
20696;BME280;10507;52.754;13.040;2022-07-23T07:11:06;101409.97;;;17.46;98.84
20696;BME280;10507;52.754;13.040;2022-07-23T07:13:35;101377.88;;;17.41;98.51
20696;BME280;10507;52.754;13.040;2022-07-23T07:16:03;101337.22;;;17.30;98.21
20696;BME280;10507;52.754;13.040;2022-07-23T07:18:31;101443.44;;;17.43;98.79
20696;BME280;10507;52.754;13.040;2022-07-23T07:20:58;101473.69;;;17.49;99.54
20696;BME280;10507;52.754;13.040;2022-07-23T07:23:28;101442.47;;;17.44;99.13
20696;BME280;10507;52.754;13.040;2022-07-23T07:25:55;101361.94;;;17.24;98.89
20696;BME280;10507;52.754;13.040;2022-07-23T07:28:23;101371.88;;;17.23;99.23
20696;BME280;10507;52.754;13.040;2022-07-23T07:30:50;101364.06;;;17.19;98.85
20696;BME280;10507;52.754;13.040;2022-07-23T07:33:18;101303.03;;;17.03;98.76
20696;BME280;10507;52.754;13.040;2022-07-23T07:35:47;101363.38;;;17.02;100.00
20696;BME280;10507;52.754;13.040;2022-07-23T07:38:15;101359.69;;;17.03;100.00
20696;BME280;10507;52.754;13.040;2022-07-23T07:40:44;101377.63;;;17.04;100.00
20696;BME280;10507;52.754;13.040;2022-07-23T07:43:12;101346.88;;;17.07;98.92
20696;BME280;10507;52.754;13.040;2022-07-23T07:45:39;101346.94;;;17.20;98.66
20696;BME280;10507;52.754;13.040;2022-07-23T07:48:07;101354.44;;;17.42;97.11
20696;BME280;10507;52.754;13.040;2022-07-23T07:50:34;101479.94;;;17.91;97.20
20696;BME280;10507;52.754;13.040;2022-07-23T07:53:03;101608.50;;;18.75;96.74
20696;BME280;10507;52.754;13.040;2022-07-23T07:55:32;101471.94;;;19.30;92.76
20696;BME280;10507;52.754;13.040;2022-07-23T07:58:01;101545.16;;;20.38;88.47
20696;BME280;10507;52.754;13.040;2022-07-23T08:00:29;101345.34;;;20.61;85.35
20696;BME280;10507;52.754;13.040;2022-07-23T08:02:58;101223.81;;;20.75;82.50
20696;BME280;10507;52.754;13.040;2022-07-23T08:05:29;101418.53;;;21.28;82.90
20696;BME280;10507;52.754;13.040;2022-07-23T08:07:58;101708.63;;;23.02;81.86
20696;BME280;10507;52.754;13.040;2022-07-23T08:10:27;101390.16;;;23.88;74.46
20696;BME280;10507;52.754;13.040;2022-07-23T08:12:57;101147.53;;;23.59;72.23
20696;BME280;10507;52.754;13.040;2022-07-23T08:15:28;100936.94;;;23.01;71.83
20696;BME280;10507;52.754;13.040;2022-07-23T08:17:56;100814.16;;;22.30;74.00
20696;BME280;10507;52.754;13.040;2022-07-23T08:20:25;101061.69;;;22.78;75.53
20696;BME280;10507;52.754;13.040;2022-07-23T08:22:56;100617.41;;;22.01;73.69
20696;BME280;10507;52.754;13.040;2022-07-23T08:25:25;100614.47;;;21.10;75.75
20696;BME280;10507;52.754;13.040;2022-07-23T08:27:54;100889.81;;;21.77;76.34
20696;BME280;10507;52.754;13.040;2022-07-23T08:30:22;100986.06;;;22.53;74.94
20696;BME280;10507;52.754;13.040;2022-07-23T08:32:53;100945.91;;;22.74;73.86
20696;BME280;10507;52.754;13.040;2022-07-23T08:35:26;100860.09;;;22.70;73.78
20696;BME280;10507;52.754;13.040;2022-07-23T08:37:54;100815.84;;;22.40;74.19
20696;BME280;10507;52.754;13.040;2022-07-23T08:40:23;100974.81;;;23.22;74.09
20696;BME280;10507;52.754;13.040;2022-07-23T08:42:52;100806.09;;;22.93;72.68
20696;BME280;10507;52.754;13.040;2022-07-23T08:45:22;101003.28;;;23.65;72.40
20696;BME280;10507;52.754;13.040;2022-07-23T08:47:52;100862.75;;;23.89;70.65
20696;BME280;10507;52.754;13.040;2022-07-23T08:50:22;100959.50;;;24.21;70.09
20696;BME280;10507;52.754;13.040;2022-07-23T08:52:51;100995.34;;;24.88;69.19
20696;BME280;10507;52.754;13.040;2022-07-23T08:55:21;100443.69;;;22.78;70.68
20696;BME280;10507;52.754;13.040;2022-07-23T08:57:51;100692.03;;;22.90;73.67
20696;BME280;10507;52.754;13.040;2022-07-23T09:00:21;100802.19;;;23.23;73.80
20696;BME280;10507;52.754;13.040;2022-07-23T09:02:49;100476.13;;;22.46;72.87
20696;BME280;10507;52.754;13.040;2022-07-23T09:05:20;100472.16;;;21.68;75.33
20696;BME280;10507;52.754;13.040;2022-07-23T09:08:08;100764.50;;;22.73;74.97
20696;BME280;10507;52.754;13.040;2022-07-23T09:10:45;100776.03;;;23.13;73.84
20696;BME280;10507;52.754;13.040;2022-07-23T09:13:29;100663.44;;;23.04;72.50
20696;BME280;10507;52.754;13.040;2022-07-23T09:15:59;100568.53;;;22.55;73.42
20696;BME280;10507;52.754;13.040;2022-07-23T09:18:29;100574.88;;;22.38;74.38
20696;BME280;10507;52.754;13.040;2022-07-23T09:21:16;100575.53;;;22.76;73.00
20696;BME280;10507;52.754;13.040;2022-07-23T09:23:46;100541.47;;;22.18;74.38
20696;BME280;10507;52.754;13.040;2022-07-23T09:26:18;100655.00;;;22.79;73.93
20696;BME280;10507;52.754;13.040;2022-07-23T09:28:54;100514.91;;;22.48;72.55
20696;BME280;10507;52.754;13.040;2022-07-23T09:31:24;100626.38;;;22.75;73.44
20696;BME280;10507;52.754;13.040;2022-07-23T09:34:06;100509.97;;;22.95;71.15
20696;BME280;10507;52.754;13.040;2022-07-23T09:36:36;100557.59;;;22.65;72.78
20696;BME280;10507;52.754;13.040;2022-07-23T09:39:04;100509.38;;;23.01;71.01
20696;BME280;10507;52.754;13.040;2022-07-23T09:41:43;100548.13;;;22.77;71.89
20696;BME280;10507;52.754;13.040;2022-07-23T09:44:14;100486.19;;;22.27;72.92
20696;BME280;10507;52.754;13.040;2022-07-23T09:46:44;100455.75;;;22.50;71.64
20696;BME280;10507;52.754;13.040;2022-07-23T09:49:15;100606.56;;;23.01;72.34
20696;BME280;10507;52.754;13.040;2022-07-23T09:51:46;100568.41;;;23.27;70.72
20696;BME280;10507;52.754;13.040;2022-07-23T09:54:22;100533.69;;;23.29;71.02
20696;BME280;10507;52.754;13.040;2022-07-23T09:56:51;100343.00;;;22.87;69.71
20696;BME280;10507;52.754;13.040;2022-07-23T09:59:23;100545.53;;;23.46;70.36
20696;BME280;10507;52.754;13.040;2022-07-23T10:01:52;100404.94;;;23.19;69.90
20696;BME280;10507;52.754;13.040;2022-07-23T10:04:21;100396.69;;;23.02;69.79
20696;BME280;10507;52.754;13.040;2022-07-23T10:06:53;100340.41;;;22.77;68.79
20696;BME280;10507;52.754;13.040;2022-07-23T10:09:25;100321.66;;;22.31;70.01
20696;BME280;10507;52.754;13.040;2022-07-23T10:11:56;100404.19;;;22.48;70.47
20696;BME280;10507;52.754;13.040;2022-07-23T10:14:44;100458.47;;;23.02;69.76
20696;BME280;10507;52.754;13.040;2022-07-23T10:17:12;100447.00;;;23.24;69.15
20696;BME280;10507;52.754;13.040;2022-07-23T10:19:49;100397.97;;;23.16;68.78
20696;BME280;10507;52.754;13.040;2022-07-23T10:22:29;100357.44;;;23.21;67.77
20696;BME280;10507;52.754;13.040;2022-07-23T10:25:08;100489.81;;;23.75;68.13
20696;BME280;10507;52.754;13.040;2022-07-23T10:27:53;100419.44;;;23.86;66.62
20696;BME280;10507;52.754;13.040;2022-07-23T10:30:29;100393.03;;;23.95;66.71
20696;BME280;10507;52.754;13.040;2022-07-23T10:33:12;100294.50;;;23.98;65.12
20696;BME280;10507;52.754;13.040;2022-07-23T10:35:47;100346.63;;;23.71;66.71
20696;BME280;10507;52.754;13.040;2022-07-23T10:38:20;100356.56;;;23.88;66.41
20696;BME280;10507;52.754;13.040;2022-07-23T10:40:57;100420.28;;;24.12;66.81
20696;BME280;10507;52.754;13.040;2022-07-23T10:43:25;100364.91;;;24.19;65.88
20696;BME280;10507;52.754;13.040;2022-07-23T10:45:54;100406.63;;;24.36;65.90
20696;BME280;10507;52.754;13.040;2022-07-23T10:48:23;100310.69;;;24.08;66.69
20696;BME280;10507;52.754;13.040;2022-07-23T10:51:10;100335.41;;;23.98;67.24
20696;BME280;10507;52.754;13.040;2022-07-23T10:53:57;100276.41;;;23.23;67.91
20696;BME280;10507;52.754;13.040;2022-07-23T10:56:50;100301.66;;;22.91;68.85
20696;BME280;10507;52.754;13.040;2022-07-23T10:59:31;100365.78;;;23.12;69.09
20696;BME280;10507;52.754;13.040;2022-07-23T11:02:20;100343.16;;;23.19;68.21
20696;BME280;10507;52.754;13.040;2022-07-23T11:04:48;100421.56;;;23.50;68.25
20696;BME280;10507;52.754;13.040;2022-07-23T11:07:17;100391.94;;;23.55;67.99
20696;BME280;10507;52.754;13.040;2022-07-23T11:09:49;100365.34;;;23.41;68.41
20696;BME280;10507;52.754;13.040;2022-07-23T11:12:35;100417.91;;;23.84;67.65
20696;BME280;10507;52.754;13.040;2022-07-23T11:15:06;100231.94;;;23.07;67.81
20696;BME280;10507;52.754;13.040;2022-07-23T11:17:35;100412.84;;;23.47;68.22
20696;BME280;10507;52.754;13.040;2022-07-23T11:20:18;100330.94;;;23.48;67.50
20696;BME280;10507;52.754;13.040;2022-07-23T11:22:51;100364.00;;;23.61;68.09
20696;BME280;10507;52.754;13.040;2022-07-23T11:25:33;100257.88;;;23.43;66.66
20696;BME280;10507;52.754;13.040;2022-07-23T11:28:09;100280.28;;;23.04;68.20
20696;BME280;10507;52.754;13.040;2022-07-23T11:30:39;100352.03;;;23.38;68.07
20696;BME280;10507;52.754;13.040;2022-07-23T11:33:21;100279.81;;;23.17;68.53
20696;BME280;10507;52.754;13.040;2022-07-23T11:36:00;100217.81;;;22.44;69.20
20696;BME280;10507;52.754;13.040;2022-07-23T11:38:31;100275.63;;;22.46;69.49
20696;BME280;10507;52.754;13.040;2022-07-23T11:41:01;100394.44;;;22.98;69.49
20696;BME280;10507;52.754;13.040;2022-07-23T11:43:28;100416.78;;;23.44;68.47
20696;BME280;10507;52.754;13.040;2022-07-23T11:45:58;100363.13;;;23.44;67.75
20696;BME280;10507;52.754;13.040;2022-07-23T11:48:28;100361.09;;;23.55;67.08
20696;BME280;10507;52.754;13.040;2022-07-23T11:50:57;100253.78;;;23.23;67.04
20696;BME280;10507;52.754;13.040;2022-07-23T11:53:27;100343.88;;;23.62;66.84
20696;BME280;10507;52.754;13.040;2022-07-23T11:56:04;100329.63;;;23.77;66.55
20696;BME280;10507;52.754;13.040;2022-07-23T11:58:32;100311.41;;;23.77;65.90
20696;BME280;10507;52.754;13.040;2022-07-23T12:01:00;100335.75;;;23.79;66.34
20696;BME280;10507;52.754;13.040;2022-07-23T12:03:28;100296.22;;;23.83;65.95
20696;BME280;10507;52.754;13.040;2022-07-23T12:05:57;100407.16;;;24.23;65.83
20696;BME280;10507;52.754;13.040;2022-07-23T12:08:25;100334.31;;;24.32;64.86
20696;BME280;10507;52.754;13.040;2022-07-23T12:10:53;100349.00;;;24.47;63.62
20696;BME280;10507;52.754;13.040;2022-07-23T12:13:28;100340.78;;;24.39;64.14
20696;BME280;10507;52.754;13.040;2022-07-23T12:15:57;100313.00;;;24.44;64.23
20696;BME280;10507;52.754;13.040;2022-07-23T12:18:26;100235.78;;;24.19;63.63
20696;BME280;10507;52.754;13.040;2022-07-23T12:20:55;100246.72;;;24.19;64.00
20696;BME280;10507;52.754;13.040;2022-07-23T12:23:26;100263.59;;;24.22;63.69
20696;BME280;10507;52.754;13.040;2022-07-23T12:25:54;100241.75;;;24.22;63.45
20696;BME280;10507;52.754;13.040;2022-07-23T12:28:28;100265.97;;;24.25;63.55
20696;BME280;10507;52.754;13.040;2022-07-23T12:30:58;100272.25;;;24.34;63.23
20696;BME280;10507;52.754;13.040;2022-07-23T12:33:28;100279.38;;;24.52;62.35
20696;BME280;10507;52.754;13.040;2022-07-23T12:35:57;100231.91;;;24.61;61.48
20696;BME280;10507;52.754;13.040;2022-07-23T12:38:26;100228.53;;;24.51;61.88
20696;BME280;10507;52.754;13.040;2022-07-23T12:40:56;100127.47;;;23.96;62.25
20696;BME280;10507;52.754;13.040;2022-07-23T12:43:25;100232.97;;;23.96;63.39
20696;BME280;10507;52.754;13.040;2022-07-23T12:45:56;100143.91;;;23.63;63.54
20696;BME280;10507;52.754;13.040;2022-07-23T12:48:26;100162.34;;;23.29;64.29